Time;durP1;ratioP1;P1;durP2;ratioP2;P2;SDS_P1;SDS_P2;PMS_P1;PMS_P2;Temp;Humidity;BMP_temperature;BMP_pressure;BME280_temperature;BME280_humidity;BME280_pressure;Samples;Min_cycle;Max_cycle;Signal;HPM_P1;HPM_P2
2022/06/23 00:02:23;;;;;;;11.47;6.83;;;;;;;26.89;57.03;98990.47;5013039;28;20347;-67
2022/06/23 00:04:53;;;;;;;11.67;7.53;;;;;;;26.94;56.69;98993.88;5014110;28;20612;-67
2022/06/23 00:07:24;;;;;;;9.83;6.47;;;;;;;26.95;56.43;98986.50;5012946;28;20657;-67
2022/06/23 00:09:52;;;;;;;9.60;7.27;;;;;;;26.88;56.85;99000.59;5012846;28;20642;-67
2022/06/23 00:12:27;;;;;;;7.17;6.40;;;;;;;26.95;56.84;98987.28;5012537;28;20191;-67
2022/06/23 00:14:57;;;;;;;14.23;6.80;;;;;;;26.85;56.69;98984.03;5013255;28;20212;-67
2022/06/23 00:17:28;;;;;;;11.07;7.30;;;;;;;26.85;56.50;98986.78;5013752;28;20186;-67
2022/06/23 00:19:56;;;;;;;9.50;6.47;;;;;;;26.78;56.83;98989.94;5013611;28;20191;-67
2022/06/23 00:22:28;;;;;;;12.37;6.90;;;;;;;26.70;56.57;98987.19;5013004;28;20256;-67
2022/06/23 00:24:57;;;;;;;11.40;6.67;;;;;;;26.65;56.31;98984.59;5012442;28;20190;-67
2022/06/23 00:27:30;;;;;;;11.50;7.10;;;;;;;26.27;57.13;98980.66;5012666;28;20713;-67
2022/06/23 00:30:01;;;;;;;9.40;6.93;;;;;;;25.96;57.66;98985.22;5012962;28;20189;-67
2022/06/23 00:32:30;;;;;;;11.47;7.40;;;;;;;25.66;59.03;98978.53;5013346;28;20248;-66
2022/06/23 00:34:59;;;;;;;15.57;7.63;;;;;;;25.68;59.94;98970.06;5012196;28;20225;-67
2022/06/23 00:37:29;;;;;;;9.10;6.67;;;;;;;25.88;58.29;98970.38;5013174;28;20197;-67
2022/06/23 00:39:58;;;;;;;8.53;7.10;;;;;;;25.83;59.08;98970.50;5012647;28;20205;-67
2022/06/23 00:42:28;;;;;;;10.40;6.40;;;;;;;25.76;58.66;98972.06;5012508;28;20198;-67
2022/06/23 00:45:00;;;;;;;12.90;7.20;;;;;;;25.59;59.27;98958.31;5012207;28;20744;-67
2022/06/23 00:47:35;;;;;;;10.50;7.07;;;;;;;25.43;59.33;98963.25;5012171;28;20240;-68
2022/06/23 00:50:13;;;;;;;11.90;6.43;;;;;;;25.50;59.36;98969.09;5014032;28;20224;-68
2022/06/23 00:52:46;;;;;;;11.00;6.83;;;;;;;25.39;59.98;98972.34;5016676;28;20178;-68
2022/06/23 00:55:21;;;;;;;9.80;7.30;;;;;;;25.16;61.03;98962.47;5016192;28;20210;-67
2022/06/23 00:57:53;;;;;;;11.53;7.20;;;;;;;25.17;60.79;98958.63;5016676;28;20622;-68
2022/06/23 01:00:24;;;;;;;8.50;6.43;;;;;;;25.08;60.86;98961.28;5016143;28;20650;-67
2022/06/23 01:02:57;;;;;;;10.23;7.07;;;;;;;25.11;61.09;98959.84;5016037;28;20251;-68
2022/06/23 01:05:32;;;;;;;11.63;6.13;;;;;;;25.02;61.04;98956.25;5016045;28;20190;-68
2022/06/23 01:08:05;;;;;;;8.50;6.40;;;;;;;24.85;61.86;98960.38;5015901;28;20186;-68
2022/06/23 01:10:43;;;;;;;12.17;6.67;;;;;;;24.81;61.58;98956.63;5017035;28;20197;-66
2022/06/23 01:13:20;;;;;;;10.37;6.33;;;;;;;24.71;62.18;98962.25;5016474;28;20225;-67
2022/06/23 01:15:51;;;;;;;14.30;7.10;;;;;;;24.66;62.39;98959.63;5016335;28;20584;-67
2022/06/23 01:18:23;;;;;;;10.77;6.80;;;;;;;24.65;62.70;98971.63;5015826;28;20193;-67
2022/06/23 01:20:56;;;;;;;9.87;6.40;;;;;;;24.68;62.83;98968.31;5016361;28;20259;-67
2022/06/23 01:23:58;;;;;;;13.13;7.23;;;;;;;24.66;62.84;98964.25;5015753;28;20717;-67
2022/06/23 01:26:49;;;;;;;7.27;6.50;;;;;;;24.56;63.41;98970.66;5009060;28;20208;-67
2022/06/23 01:29:24;;;;;;;11.27;6.80;;;;;;;24.40;63.97;98963.91;5016509;28;20189;-67
2022/06/23 01:31:55;;;;;;;17.33;7.60;;;;;;;24.26;65.01;98960.31;5015618;28;20188;-68
2022/06/23 01:34:29;;;;;;;9.43;7.43;;;;;;;24.51;64.28;98957.16;5016660;28;20244;-68
2022/06/23 01:37:01;;;;;;;11.57;7.17;;;;;;;24.53;64.56;98944.09;5016016;28;20274;-69
2022/06/23 01:39:36;;;;;;;12.33;7.23;;;;;;;24.66;64.15;98954.19;5016005;28;20247;-68
2022/06/23 01:42:13;;;;;;;7.90;6.90;;;;;;;24.67;64.11;98955.03;5016535;28;20246;-68
2022/06/23 01:44:47;;;;;;;10.67;6.60;;;;;;;24.57;64.74;98955.97;5016141;28;20193;-68
2022/06/23 01:47:22;;;;;;;7.70;6.93;;;;;;;24.61;64.57;98951.59;5016140;28;20284;-67
2022/06/23 01:49:53;;;;;;;9.67;6.67;;;;;;;24.82;64.47;98943.84;5015289;28;20716;-68
2022/06/23 01:52:22;;;;;;;10.27;7.07;;;;;;;24.86;64.07;98947.56;5016501;28;20186;-68
2022/06/23 01:54:57;;;;;;;9.77;7.20;;;;;;;24.86;63.54;98953.81;5015304;28;20201;-67
2022/06/23 01:57:36;;;;;;;14.57;7.73;;;;;;;24.81;64.14;98961.25;5015585;28;20194;-67
2022/06/23 02:00:11;;;;;;;11.80;7.27;;;;;;;24.76;64.09;98959.47;5016004;28;20206;-68
2022/06/23 02:02:50;;;;;;;9.60;6.60;;;;;;;24.71;64.50;98973.13;5014863;28;20184;-68
2022/06/23 02:05:28;;;;;;;11.90;7.17;;;;;;;24.71;64.33;98970.41;5015511;28;20189;-69
2022/06/23 02:08:01;;;;;;;10.30;7.50;;;;;;;24.54;64.53;98969.34;5014938;28;20247;-70
2022/06/23 02:10:33;;;;;;;10.90;6.90;;;;;;;24.52;64.82;98969.66;5015384;28;20282;-70
2022/06/23 02:13:12;;;;;;;8.10;7.27;;;;;;;24.30;65.14;98958.63;5015123;28;20229;-70
2022/06/23 02:15:50;;;;;;;14.50;7.10;;;;;;;24.00;66.26;98956.44;5014944;28;20571;-70
2022/06/23 02:18:23;;;;;;;11.97;6.80;;;;;;;24.03;66.71;98965.88;5015311;28;20189;-69
2022/06/23 02:21:02;;;;;;;11.40;7.43;;;;;;;24.11;65.97;98967.91;5014688;28;20198;-69
2022/06/23 02:23:42;;;;;;;8.90;6.73;;;;;;;24.20;65.51;98964.25;5014601;28;20193;-70
2022/06/23 02:26:23;;;;;;;8.03;6.63;;;;;;;24.13;65.71;98961.09;5014890;28;20192;-70
2022/06/23 02:29:00;;;;;;;9.33;6.57;;;;;;;23.89;66.16;98959.56;5014552;28;20189;-70
2022/06/23 02:31:38;;;;;;;10.43;6.63;;;;;;;23.68;67.25;98960.97;5014556;28;20251;-69
2022/06/23 02:34:11;;;;;;;8.03;6.60;;;;;;;23.75;66.53;98955.97;5014578;28;20674;-70
2022/06/23 02:36:59;;;;;;;9.17;6.77;;;;;;;23.69;65.93;98954.44;5014290;28;20213;-70
2022/06/23 02:39:34;;;;;;;10.27;6.67;;;;;;;23.84;64.77;98952.31;5015175;28;20191;-69
2022/06/23 02:42:04;;;;;;;8.00;5.97;;;;;;;23.79;65.15;98938.00;5015285;28;20188;-69
2022/06/23 02:44:49;;;;;;;11.83;6.03;;;;;;;24.00;64.53;98944.75;5014254;28;20184;-69
2022/06/23 02:47:29;;;;;;;9.03;6.47;;;;;;;24.11;64.72;98948.91;5015021;28;20200;-69
2022/06/23 02:50:27;;;;;;;8.13;6.00;;;;;;;24.22;64.62;98943.00;5014072;28;20189;-70
2022/06/23 02:53:13;;;;;;;11.40;7.70;;;;;;;24.24;64.23;98913.69;5014038;28;20683;-69
2022/06/23 02:55:59;;;;;;;9.07;6.53;;;;;;;24.35;64.33;98930.59;5014735;28;20224;-69
2022/06/23 02:58:33;;;;;;;13.40;6.90;;;;;;;24.22;64.77;98940.31;5014126;28;20189;-69
2022/06/23 03:01:04;;;;;;;11.63;6.60;;;;;;;24.03;65.26;98950.41;5013800;28;20763;-69
2022/06/23 03:03:39;;;;;;;10.57;6.53;;;;;;;23.92;65.62;98937.28;5014254;28;20192;-69
2022/06/23 03:06:16;;;;;;;7.63;6.70;;;;;;;23.59;66.89;98939.13;5014728;28;20196;-69
2022/06/23 03:08:50;;;;;;;10.50;7.03;;;;;;;23.56;67.56;98931.56;5013676;28;20185;-69
2022/06/23 03:11:51;;;;;;;8.70;6.67;;;;;;;23.54;67.88;98941.91;5014338;28;20192;-69
2022/06/23 03:14:14;;;;;;;11.80;8.40;;;;;;;23.51;68.09;98942.50;5013890;28;20231;-69
2022/06/23 03:16:47;;;;;;;11.00;7.20;;;;;;;23.35;69.12;98941.09;5012677;28;20210;-70
2022/06/23 03:19:20;;;;;;;13.47;7.20;;;;;;;23.46;69.00;98937.16;4993893;28;20197;-70
2022/06/23 03:21:52;;;;;;;8.33;6.87;;;;;;;23.46;69.29;98956.13;4994800;28;20265;-69
2022/06/23 03:24:27;;;;;;;14.20;7.73;;;;;;;23.38;69.78;98955.97;4994174;28;20614;-70
2022/06/23 03:26:59;;;;;;;14.20;7.20;;;;;;;23.41;69.59;98948.06;4993803;28;20683;-69
2022/06/23 03:29:32;;;;;;;10.43;7.10;;;;;;;23.35;70.19;98957.34;4994266;28;20192;-69
2022/06/23 03:32:07;;;;;;;16.33;7.63;;;;;;;23.44;69.76;98958.31;4994802;28;20216;-69
2022/06/23 03:34:39;;;;;;;8.27;7.50;;;;;;;23.55;69.58;98954.38;4993630;28;20189;-70
2022/06/23 03:37:12;;;;;;;11.30;7.43;;;;;;;23.62;69.29;98954.81;4993879;28;20214;-70
2022/06/23 03:42:33;;;;;;;10.77;7.50;;;;;;;23.85;68.68;98962.03;4993561;28;20614;-70
2022/06/23 03:45:12;;;;;;;9.07;6.70;;;;;;;23.92;68.19;98962.53;4993760;28;20236;-70
2022/06/23 03:47:46;;;;;;;13.10;7.50;;;;;;;24.04;67.90;98972.91;4993963;28;20569;-70
2022/06/23 03:50:21;;;;;;;9.80;7.03;;;;;;;24.18;67.55;98963.72;4994573;28;20268;-70
2022/06/23 03:52:53;;;;;;;13.67;7.87;;;;;;;24.31;66.88;98973.00;4993361;28;20645;-71
2022/06/23 03:55:24;;;;;;;9.77;6.93;;;;;;;24.52;66.05;98985.94;4994400;28;20190;-71
2022/06/23 03:57:57;;;;;;;13.20;7.13;;;;;;;24.70;66.15;98993.25;4994431;28;20252;-70
2022/06/23 04:00:33;;;;;;;10.73;7.10;;;;;;;24.86;66.11;98981.00;4994608;28;20190;-70
2022/06/23 04:03:11;;;;;;;13.00;7.27;;;;;;;24.91;64.78;98991.75;4994552;28;20197;-70
2022/06/23 04:06:31;;;;;;;13.43;7.70;;;;;;;24.71;65.11;98994.84;4993999;28;20225;-69
2022/06/23 04:09:10;;;;;;;10.93;6.73;;;;;;;24.66;65.06;98992.22;4993936;28;20189;-70
2022/06/23 04:11:55;;;;;;;15.00;6.60;;;;;;;24.73;65.17;99000.00;4994137;28;20190;-70
2022/06/23 04:14:32;;;;;;;10.83;6.77;;;;;;;24.80;64.32;99009.34;4994142;28;20300;-70
2022/06/23 04:17:10;;;;;;;14.13;7.03;;;;;;;24.80;64.83;99009.34;4993464;28;20589;-70
2022/06/23 04:19:38;;;;;;;10.03;6.70;;;;;;;24.67;65.28;98993.06;4993249;28;20263;-70
2022/06/23 04:22:11;;;;;;;10.97;7.43;;;;;;;24.90;65.88;98998.31;4993374;28;20260;-70
2022/06/23 04:24:43;;;;;;;16.33;7.43;;;;;;;25.65;62.54;98998.69;4992477;28;20725;-68
2022/06/23 04:27:17;;;;;;;11.87;7.37;;;;;;;26.07;60.95;98995.56;4992685;28;20244;-69
2022/06/23 04:29:44;;;;;;;11.13;6.93;;;;;;;26.07;60.69;99000.19;4993850;28;20205;-69
2022/06/23 04:32:20;;;;;;;13.80;7.37;;;;;;;25.88;61.29;98996.81;4992819;28;20737;-68
2022/06/23 04:34:53;;;;;;;11.17;7.73;;;;;;;25.93;61.54;98988.53;4993146;28;20280;-68
2022/06/23 04:37:33;;;;;;;17.70;8.57;;;;;;;25.91;62.12;98996.19;4993162;28;20214;-69
2022/06/23 04:40:20;;;;;;;16.63;7.90;;;;;;;25.91;62.15;98985.28;4993232;28;20190;-68
2022/06/23 04:42:53;;;;;;;10.90;7.10;;;;;;;26.00;61.58;98988.94;4992379;28;20187;-68
2022/06/23 04:45:49;;;;;;;21.37;7.67;;;;;;;26.01;62.20;98988.63;4992506;28;20195;-68
2022/06/23 04:48:22;;;;;;;12.57;6.43;;;;;;;26.00;61.93;98988.94;4992406;28;20737;-69
2022/06/23 04:50:56;;;;;;;16.70;7.90;;;;;;;26.23;61.19;98983.19;4992678;28;20219;-71
2022/06/23 04:53:43;;;;;;;12.37;7.63;;;;;;;26.62;60.27;98990.69;4993130;28;20214;-70
2022/06/23 04:56:20;;;;;;;23.20;7.50;;;;;;;27.32;58.76;98989.53;4990503;28;20765;-70
2022/06/23 04:58:51;;;;;;;12.50;6.50;;;;;;;27.48;57.50;98998.09;4992870;28;20186;-69
2022/06/23 05:01:22;;;;;;;9.33;6.80;;;;;;;27.40;57.86;98996.16;4993421;28;20191;-69
2022/06/23 05:03:52;;;;;;;13.00;6.67;;;;;;;28.14;56.23;99000.44;4992838;28;20215;-70
2022/06/23 05:06:25;;;;;;;16.03;7.07;;;;;;;28.95;52.90;99011.03;4992165;28;20212;-70
2022/06/23 05:08:55;;;;;;;10.27;6.43;;;;;;;29.79;50.09;99019.19;4992329;28;20713;-70
2022/06/23 05:11:29;;;;;;;11.83;6.43;;;;;;;30.60;47.75;99023.03;4992128;28;20194;-69
2022/06/23 05:14:01;;;;;;;12.93;6.30;;;;;;;31.68;44.93;99025.91;4992654;28;20233;-70
2022/06/23 05:16:32;;;;;;;14.23;6.97;;;;;;;32.08;43.38;99029.53;4992144;28;20666;-70
2022/06/23 05:19:06;;;;;;;15.77;6.00;;;;;;;32.69;41.68;99041.91;4992622;28;20195;-69
2022/06/23 05:21:39;;;;;;;14.27;5.37;;;;;;;32.85;41.79;99031.78;4992385;28;20186;-70
2022/06/23 05:24:13;;;;;;;9.70;4.83;;;;;;;33.29;40.53;99036.06;4992200;28;20190;-73
2022/06/23 05:26:45;;;;;;;11.43;5.20;;;;;;;33.92;38.57;99025.75;4992557;28;20190;-70
2022/06/23 05:29:17;;;;;;;9.57;5.53;;;;;;;34.39;36.70;99025.59;5012872;28;20190;-70
2022/06/23 05:31:46;;;;;;;8.45;4.90;;;;;;;34.71;36.82;99035.31;5011793;28;20218;-71
2022/06/23 05:34:23;;;;;;;9.90;4.68;;;;;;;35.24;35.47;99031.56;5011865;28;20198;-70
2022/06/23 05:36:59;;;;;;;14.10;5.97;;;;;;;35.22;35.04;99033.88;5014023;28;20300;-70
2022/06/23 05:39:34;;;;;;;6.10;4.97;;;;;;;35.39;34.10;99034.19;5016135;28;20608;-70
2022/06/23 05:42:09;;;;;;;8.13;4.68;;;;;;;35.07;34.12;99035.59;5016340;28;20244;-70
2022/06/23 05:44:49;;;;;;;6.55;5.00;;;;;;;35.11;33.51;99039.22;5015131;28;20662;-69
2022/06/23 05:47:19;;;;;;;6.95;4.13;;;;;;;35.47;33.64;99032.34;5015587;28;20542;-70
2022/06/23 05:49:49;;;;;;;9.90;4.35;;;;;;;35.46;31.74;99030.75;5014809;28;20627;-71
2022/06/23 05:52:19;;;;;;;12.38;4.65;;;;;;;35.63;31.87;99016.41;5014909;28;20721;-70
2022/06/23 05:54:53;;;;;;;9.63;4.45;;;;;;;35.50;31.39;99017.78;5015237;28;20256;-70
2022/06/23 05:57:26;;;;;;;13.07;4.32;;;;;;;35.63;32.01;99010.88;5006957;28;20312;-70
2022/06/23 06:00:01;;;;;;;5.85;3.95;;;;;;;35.87;30.76;99021.50;4998932;28;20187;-70
2022/06/23 06:02:33;;;;;;;13.82;4.55;;;;;;;36.07;31.82;99003.63;5014856;28;20201;-70
2022/06/23 06:05:01;;;;;;;4.72;3.67;;;;;;;35.71;31.36;99012.56;5006511;28;20186;-71
2022/06/23 06:07:34;;;;;;;10.73;4.25;;;;;;;35.99;30.22;99019.34;5013537;28;20213;-70
2022/06/23 06:10:04;;;;;;;6.18;4.40;;;;;;;36.20;31.33;99010.50;5014683;28;20249;-70
2022/06/23 06:12:34;;;;;;;13.07;4.35;;;;;;;36.38;30.87;99008.78;5014264;28;20194;-70
2022/06/23 06:15:05;;;;;;;7.28;4.40;;;;;;;36.39;29.54;99015.91;5014892;28;20248;-69
2022/06/23 06:17:35;;;;;;;10.45;4.72;;;;;;;36.10;30.40;99019.47;5014545;28;20267;-69
2022/06/23 06:20:06;;;;;;;7.32;3.92;;;;;;;36.11;30.27;99016.34;5014013;28;20252;-70
2022/06/23 06:22:43;;;;;;;4.47;3.85;;;;;;;35.73;30.56;99015.78;5013473;28;20244;-69
2022/06/23 06:25:20;;;;;;;5.95;4.43;;;;;;;35.53;31.33;99012.31;5013560;28;20721;-70
2022/06/23 06:27:46;;;;;;;5.85;3.80;;;;;;;35.39;31.11;99011.31;5014053;28;20552;-69
2022/06/23 06:30:16;;;;;;;6.95;3.75;;;;;;;35.30;31.45;99021.81;5012515;28;20202;-70
2022/06/23 06:32:44;;;;;;;8.35;4.57;;;;;;;35.10;32.21;99026.56;4995120;28;20206;-69
2022/06/23 06:35:20;;;;;;;7.20;3.90;;;;;;;34.50;32.74;99010.06;4995329;28;20198;-73
2022/06/23 06:37:52;;;;;;;8.13;4.25;;;;;;;34.23;32.96;99003.59;4994499;28;20780;-73
2022/06/23 06:40:21;;;;;;;8.02;4.60;;;;;;;33.82;33.72;99003.47;4995148;28;20191;-74
2022/06/23 06:42:53;;;;;;;4.85;3.83;;;;;;;33.57;34.21;99007.59;4994930;28;20191;-73
2022/06/23 06:45:23;;;;;;;4.88;4.25;;;;;;;33.63;34.12;99018.00;4994566;28;20651;-73
2022/06/23 06:47:50;;;;;;;7.90;4.25;;;;;;;33.63;34.44;99029.00;4994323;28;20554;-74
2022/06/23 06:50:29;;;;;;;4.90;4.50;;;;;;;33.23;35.28;99031.16;4995350;28;20194;-71
2022/06/23 06:52:57;;;;;;;18.88;5.88;;;;;;;32.84;35.92;99051.38;5014273;28;20185;-72
2022/06/23 06:55:28;;;;;;;12.30;4.80;;;;;;;32.60;37.02;99060.53;5013897;28;20205;-74
2022/06/23 06:58:01;;;;;;;7.07;4.67;;;;;;;32.24;37.43;99068.91;5013645;28;20832;-76
2022/06/23 07:00:33;;;;;;;7.15;4.80;;;;;;;31.75;38.62;99091.28;5014285;28;20543;-74
2022/06/23 07:03:03;;;;;;;8.50;4.57;;;;;;;31.19;39.92;99114.09;5013765;28;20240;-75
2022/06/23 07:05:37;;;;;;;5.60;5.07;;;;;;;30.78;40.76;99119.69;5001484;28;20202;-74
2022/06/23 07:08:09;;;;;;;10.90;5.50;;;;;;;30.37;42.06;99134.19;4993840;28;20678;-80
2022/06/23 07:10:43;;;;;;;8.23;4.43;;;;;;;30.09;43.45;99168.69;4993996;28;20256;-71
2022/06/23 07:13:17;;;;;;;5.47;4.90;;;;;;;29.70;46.27;99190.16;4994404;28;20648;-71
2022/06/23 07:15:50;;;;;;;9.60;5.40;;;;;;;29.49;48.42;99219.34;4994178;28;20249;-71
2022/06/23 07:18:21;;;;;;;5.43;4.93;;;;;;;29.31;48.33;99237.72;4994141;28;20280;-71
2022/06/23 07:20:54;;;;;;;6.30;4.63;;;;;;;28.99;50.20;99257.38;4993949;28;20282;-72
2022/06/23 07:23:26;;;;;;;10.13;5.20;;;;;;;28.75;51.95;99278.94;4993997;28;20186;-69
2022/06/23 07:25:58;;;;;;;8.40;5.70;;;;;;;28.53;54.19;99320.84;4993581;28;20701;-69
2022/06/23 07:28:34;;;;;;;12.30;6.03;;;;;;;28.37;56.04;99343.41;4993616;28;20745;-67
2022/06/23 07:31:11;;;;;;;12.67;6.10;;;;;;;28.31;56.16;99350.16;5000376;28;20280;-69
2022/06/23 07:33:43;;;;;;;9.20;6.23;;;;;;;28.32;57.57;99351.75;5012177;28;20563;-69
2022/06/23 07:36:17;;;;;;;6.23;5.43;;;;;;;28.20;58.60;99325.03;5012984;28;20186;-68
2022/06/23 07:38:50;;;;;;;10.23;5.97;;;;;;;28.13;60.75;99291.09;5016902;28;20661;-68
2022/06/23 07:41:23;;;;;;;6.43;5.77;;;;;;;27.97;59.96;99278.97;5032681;28;20197;-68
2022/06/23 07:44:03;;;;;;;7.90;5.33;;;;;;;27.78;60.60;99254.63;5033079;28;20192;-67
2022/06/23 07:46:31;;;;;;;6.53;5.30;;;;;;;27.66;61.75;99216.16;5032925;28;20189;-67
2022/06/23 07:48:58;;;;;;;10.13;6.00;;;;;;;27.44;62.09;99188.13;5032807;28;20197;-66
2022/06/23 07:51:26;;;;;;;6.77;4.83;;;;;;;27.28;63.34;99200.56;5032603;28;20251;-66
2022/06/23 07:53:56;;;;;;;9.27;6.10;;;;;;;26.75;65.66;99202.38;5032283;28;20197;-67
2022/06/23 07:56:26;;;;;;;8.10;5.50;;;;;;;26.29;66.75;99178.03;5033133;28;20200;-66
2022/06/23 07:58:56;;;;;;;7.63;5.43;;;;;;;26.07;68.04;99177.16;5031837;28;20221;-66
2022/06/23 08:01:28;;;;;;;8.47;5.30;;;;;;;25.78;69.19;99157.59;5032403;28;20193;-79
2022/06/23 08:04:03;;;;;;;9.90;5.50;;;;;;;25.73;69.43;99153.06;5032329;28;20193;-78
2022/06/23 08:06:32;;;;;;;7.27;5.13;;;;;;;25.78;69.58;99160.31;4994394;28;20194;-82
2022/06/23 08:09:03;;;;;;;5.70;5.30;;;;;;;25.85;68.85;99163.44;4993103;28;20253;-79
2022/06/23 08:14:25;;;;;;;8.27;5.33;;;;;;;25.53;71.72;99163.53;4993225;28;20241;-79
2022/06/23 08:16:51;;;;;;;8.43;4.83;;;;;;;25.54;71.70;99170.56;4993073;28;20265;-72
2022/06/23 08:19:29;;;;;;;10.93;6.40;;;;;;;25.48;74.60;99172.59;4992953;28;20213;-76
2022/06/23 08:22:08;;;;;;;7.33;6.30;;;;;;;25.36;75.42;99174.19;4992656;28;20274;-76
2022/06/23 08:24:38;;;;;;;9.63;6.53;;;;;;;25.43;76.14;99180.06;4993253;28;20187;-72
2022/06/23 08:27:11;;;;;;;7.03;5.77;;;;;;;25.62;73.79;99194.38;4993018;28;20193;-72
2022/06/23 08:29:43;;;;;;;9.50;6.03;;;;;;;25.71;74.81;99187.94;5011044;28;20683;-74
2022/06/23 08:32:12;;;;;;;6.80;5.67;;;;;;;25.64;75.01;99186.72;5012300;28;20244;-73
2022/06/23 08:34:43;;;;;;;8.63;5.80;;;;;;;25.82;73.10;99204.88;5012394;28;20194;-74
2022/06/23 08:37:16;;;;;;;6.00;5.53;;;;;;;25.91;73.30;99224.81;5012648;28;20206;-73
2022/06/23 08:39:50;;;;;;;7.00;5.67;;;;;;;26.16;71.72;99243.41;5012402;28;20186;-80
2022/06/23 08:42:23;;;;;;;7.00;5.17;;;;;;;26.40;70.83;99265.78;5012216;28;20193;-80
2022/06/23 08:45:01;;;;;;;6.17;5.53;;;;;;;26.53;69.59;99267.69;5011932;28;20190;-85
2022/06/23 08:47:36;;;;;;;9.43;5.70;;;;;;;26.60;69.69;99258.03;5012671;28;20194;-63
2022/06/23 08:50:08;;;;;;;7.17;5.37;;;;;;;26.74;69.64;99245.16;5012165;28;20232;-64
2022/06/23 08:52:44;;;;;;;7.70;5.53;;;;;;;26.82;68.58;99246.38;5012417;28;20186;-64
2022/06/23 08:55:18;;;;;;;9.17;5.20;;;;;;;26.95;67.90;99248.25;5012088;28;20199;-64
2022/06/23 08:57:54;;;;;;;8.40;5.37;;;;;;;26.99;66.69;99268.34;5012106;28;20253;-64
2022/06/23 09:00:28;;;;;;;8.77;5.53;;;;;;;27.03;66.39;99285.69;5012455;28;20252;-63
2022/06/23 09:03:01;;;;;;;6.50;5.20;;;;;;;27.00;67.05;99281.66;5012161;28;20181;-64
2022/06/23 09:05:38;;;;;;;14.93;5.63;;;;;;;27.04;66.90;99262.75;5019961;28;20203;-63
2022/06/23 09:08:14;;;;;;;7.73;5.00;;;;;;;27.08;66.79;99277.38;5031941;28;20196;-64
2022/06/23 09:10:52;;;;;;;6.40;5.80;;;;;;;27.00;67.94;99243.47;5032575;28;20201;-63
2022/06/23 09:13:35;;;;;;;10.67;6.97;;;;;;;26.81;69.26;99212.84;5035558;28;20236;-63
2022/06/23 09:16:19;;;;;;;12.07;7.27;;;;;;;26.55;71.35;99195.44;5035332;28;20185;-64
2022/06/23 09:19:03;;;;;;;14.03;7.10;;;;;;;26.54;71.61;99196.53;5035398;28;20255;-64
2022/06/23 09:21:46;;;;;;;9.53;6.73;;;;;;;26.55;71.65;99205.53;5035331;28;20187;-64
2022/06/23 09:24:39;;;;;;;8.53;6.33;;;;;;;26.58;72.67;99218.59;5035997;28;20240;-64
2022/06/23 09:27:15;;;;;;;8.87;6.07;;;;;;;26.60;72.04;99208.97;5035302;28;20194;-63
2022/06/23 09:29:56;;;;;;;9.50;6.17;;;;;;;26.71;71.23;99213.06;5035366;28;20615;-64
2022/06/23 09:32:38;;;;;;;7.53;6.70;;;;;;;26.73;71.47;99229.94;5036311;28;20272;-63
2022/06/23 09:35:24;;;;;;;17.00;6.60;;;;;;;26.44;73.56;99229.47;5000448;28;20277;-64
2022/06/23 09:38:12;;;;;;;10.23;7.23;;;;;;;26.47;73.20;99239.75;4995947;28;20206;-64
2022/06/23 09:40:51;;;;;;;9.63;7.10;;;;;;;26.45;73.23;99224.84;4995802;28;20198;-64
2022/06/23 09:43:44;;;;;;;13.23;7.60;;;;;;;26.28;74.03;99222.72;4996188;28;20617;-64
2022/06/23 09:46:44;;;;;;;9.50;7.53;;;;;;;26.18;73.77;99213.97;4990015;28;20195;-64
2022/06/23 09:49:44;;;;;;;9.47;7.37;;;;;;;26.04;77.41;99219.41;4987930;28;20198;-64
2022/06/23 09:52:34;;;;;;;7.53;6.87;;;;;;;26.11;78.93;99213.56;4995287;28;20546;-64
2022/06/23 09:55:30;;;;;;;8.13;6.77;;;;;;;26.59;75.75;99203.84;4995479;28;20191;-66
2022/06/23 09:58:25;;;;;;;12.57;7.43;;;;;;;26.78;71.01;99193.59;4978759;28;20222;-63
2022/06/23 10:01:06;;;;;;;7.07;6.57;;;;;;;26.77;71.68;99168.25;4995519;28;20186;-63
2022/06/23 10:03:49;;;;;;;7.07;6.47;;;;;;;26.74;71.36;99155.22;4995277;28;20194;-63
2022/06/23 10:06:38;;;;;;;9.53;6.60;;;;;;;26.89;71.15;99154.03;5013543;28;20571;-63
2022/06/23 10:09:12;;;;;;;7.17;6.57;;;;;;;27.12;71.77;99147.47;5014977;28;20244;-63
2022/06/23 10:11:57;;;;;;;10.23;5.97;;;;;;;27.35;70.13;99152.59;5014626;28;20198;-63
2022/06/23 10:14:33;;;;;;;9.17;6.80;;;;;;;27.74;68.72;99149.88;5014780;28;20233;-63
2022/06/23 10:17:21;;;;;;;8.30;5.97;;;;;;;27.75;67.79;99150.69;5015066;28;20632;-63
2022/06/23 10:20:02;;;;;;;6.60;6.00;;;;;;;28.02;68.65;99145.00;5015070;28;20186;-63
2022/06/23 10:22:43;;;;;;;10.17;5.70;;;;;;;28.30;65.59;99133.47;5014131;28;20545;-64
2022/06/23 10:25:31;;;;;;;11.53;6.03;;;;;;;28.58;67.98;99117.63;4997171;28;20202;-65
2022/06/23 10:28:26;;;;;;;6.43;5.83;;;;;;;28.68;65.00;99114.53;4995113;28;20230;-63
2022/06/23 10:31:00;;;;;;;7.87;5.80;;;;;;;28.90;62.13;99119.81;4994908;28;20237;-63
2022/06/23 10:33:57;;;;;;;8.03;5.83;;;;;;;28.88;63.30;99113.88;4994852;28;20190;-63
2022/06/23 10:36:44;;;;;;;7.63;4.73;;;;;;;28.97;61.82;99117.38;4993817;28;20625;-63
2022/06/23 10:39:24;;;;;;;7.33;5.03;;;;;;;29.08;60.81;99107.75;4994818;28;20215;-66
2022/06/23 10:42:07;;;;;;;6.17;5.27;;;;;;;29.17;59.77;99114.00;4994849;28;20252;-63
2022/06/23 10:45:03;;;;;;;7.43;5.30;;;;;;;29.51;60.73;99118.56;4995224;28;20186;-63
2022/06/23 10:47:43;;;;;;;7.33;5.33;;;;;;;29.63;58.90;99118.69;4993546;28;20517;-63
2022/06/23 10:50:32;;;;;;;10.33;4.93;;;;;;;29.82;57.98;99122.59;4994575;28;20286;-64
2022/06/23 10:53:17;;;;;;;8.80;5.73;;;;;;;29.84;56.50;99128.53;4994709;28;20191;-63
2022/06/23 10:56:05;;;;;;;6.33;5.70;;;;;;;29.88;59.27;99126.75;4994267;28;20662;-63
2022/06/23 10:59:01;;;;;;;7.43;4.77;;;;;;;30.16;57.68;99121.59;4994268;28;20214;-67
2022/06/23 11:01:49;;;;;;;7.27;5.70;;;;;;;30.28;56.95;99119.75;5013969;28;20267;-63
2022/06/23 11:04:47;;;;;;;6.63;4.60;;;;;;;30.43;56.75;99130.13;5014042;28;20236;-63
2022/06/23 11:07:41;;;;;;;5.63;5.13;;;;;;;30.62;55.41;99130.44;5013349;28;20202;-64
2022/06/23 11:10:46;;;;;;;6.23;5.30;;;;;;;30.77;55.76;99115.31;5013661;28;20249;-64
2022/06/23 11:13:23;;;;;;;7.87;4.73;;;;;;;30.63;55.11;99110.13;5013737;28;20229;-63
2022/06/23 11:15:58;;;;;;;6.07;5.47;;;;;;;30.57;52.45;99118.88;5014653;28;20194;-63
2022/06/23 11:18:53;;;;;;;11.27;5.10;;;;;;;30.63;53.12;99110.13;5013420;28;20209;-63
2022/06/23 11:21:32;;;;;;;12.97;5.87;;;;;;;30.88;53.56;99111.84;5006906;28;20202;-63
2022/06/23 11:24:04;;;;;;;7.13;6.50;;;;;;;30.80;52.62;99104.50;5012756;28;20236;-63
2022/06/23 11:26:44;;;;;;;11.43;6.00;;;;;;;30.71;53.85;99094.75;5004745;28;20193;-62
2022/06/23 11:29:36;;;;;;;5.37;4.83;;;;;;;30.79;53.90;99102.09;4993840;28;20190;-63
2022/06/23 11:32:17;;;;;;;9.07;5.30;;;;;;;30.74;54.06;99094.88;4993964;28;20249;-63
2022/06/23 11:34:59;;;;;;;11.57;5.63;;;;;;;30.72;53.12;99091.66;4992665;28;20191;-63
2022/06/23 11:37:45;;;;;;;7.83;5.37;;;;;;;30.59;51.73;99081.78;5015997;28;20719;-63
2022/06/23 11:40:35;;;;;;;6.13;5.20;;;;;;;30.57;53.08;99084.03;4994065;28;20282;-65
2022/06/23 11:43:20;;;;;;;7.40;5.77;;;;;;;30.52;51.84;99070.53;5013412;28;20194;-65
2022/06/23 11:46:02;;;;;;;9.27;5.90;;;;;;;30.39;51.60;99066.16;5012403;28;20181;-67
2022/06/23 11:48:43;;;;;;;10.30;5.77;;;;;;;30.50;52.19;99072.00;5013241;28;20186;-64
2022/06/23 11:51:25;;;;;;;8.60;5.40;;;;;;;30.52;54.91;99056.81;5013166;28;20732;-64
2022/06/23 11:54:17;;;;;;;9.53;5.27;;;;;;;30.63;53.71;99058.00;5012876;28;20240;-64
2022/06/23 11:56:56;;;;;;;6.67;5.27;;;;;;;30.65;53.21;99052.16;5013051;28;20561;-64
2022/06/23 11:59:39;;;;;;;6.80;5.10;;;;;;;30.67;52.17;99067.19;5012633;28;20589;-64
2022/06/23 12:02:06;;;;;;;11.77;6.33;;;;;;;30.72;52.70;99072.47;5012879;28;20206;-65
2022/06/23 12:04:50;;;;;;;5.87;5.30;;;;;;;30.60;52.21;99071.59;5011763;28;20194;-65
2022/06/23 12:07:34;;;;;;;10.20;5.03;;;;;;;30.55;52.44;99063.56;5012467;28;20253;-64
2022/06/23 12:10:12;;;;;;;5.93;4.83;;;;;;;30.64;52.17;99076.06;4997119;28;20573;-63
2022/06/23 12:12:41;;;;;;;6.37;5.50;;;;;;;30.63;50.98;99066.25;4993006;28;20569;-65
2022/06/23 12:15:14;;;;;;;7.60;5.23;;;;;;;30.61;52.91;99057.53;4993161;28;20248;-64
2022/06/23 12:17:44;;;;;;;7.37;5.20;;;;;;;30.65;52.85;99061.22;4993011;28;20249;-64
2022/06/23 12:20:20;;;;;;;8.23;4.97;;;;;;;30.84;52.15;99064.28;4992677;28;20223;-64